All
Dax-Seyresse Airport LFBY Weather
|
(LFBY)
Clear skies
Calm winds |
|
66 °F |
LFBY Terminal Area Forecast
| Date | Time (CEST) | Flight Rules | Wind Dir. | Speed | Type | Height AGL (ft) | Visibility | Remarks | ||||||
|---|---|---|---|---|---|---|---|---|---|---|---|---|---|---|
Recent LFBY METAR history
| Date | Time (CEST) | Flight Rules | Wind Dir. | Speed | Type | Height AGL (ft) | Visibility | Temp (°C) | Temp (°F) | Dew Point (°C) | Dew Point (°F) | Rel. Humid. | Pressure | Density Altitude | Remarks |
|---|---|---|---|---|---|---|---|---|---|---|---|---|---|---|---|
| 02-Sep | 11:30PM | n/a | 290° | 3 kt | Missing | 19° | 66° | 14° | 57° | 73% | 1025 mb | 240 ft | |||
| 02-Sep | 11:00PM | n/a | 290° | 3 kt | Missing | 20° | 68° | 14° | 57° | 68% | 1024 mb | 389 ft | |||
| 02-Sep | 10:30PM | n/a | 270° | 3 kt | Missing | 20° | 68° | 14° | 57° | 68% | 1024 mb | 389 ft | |||
| 02-Sep | 10:00PM | n/a | 300° | 3 kt | Missing | 21° | 69° | 14° | 57° | 64% | 1024 mb | 509 ft | |||
| 02-Sep | 09:30PM | n/a | 310° | 3 kt | Missing | 22° | 71° | 14° | 57° | 60% | 1023 mb | 659 ft | |||
| 02-Sep | 09:00PM | n/a | Variable | 3 kt | Missing | 23° | 73° | 14° | 57° | 57% | 1023 mb | 779 ft | |||
| 02-Sep | 08:30PM | n/a | 310° | 3 kt | Missing | 24° | 75° | 14° | 57° | 54% | 1023 mb | 899 ft | |||
| 02-Sep | 08:00PM | n/a | 310° | 5 kt | Missing | 25° | 77° | 14° | 57° | 50% | 1023 mb | 1,019 ft | |||
| 02-Sep | 07:30PM | n/a | 290° | 6 kt | Missing | 26° | 78° | 14° | 57° | 48% | 1022 mb | 1,168 ft | |||
| 02-Sep | 07:00PM | n/a | 310° | 6 kt | Missing | 27° | 80° | 15° | 59° | 48% | 1022 mb | 1,288 ft | |||
| 02-Sep | 06:30PM | VFR | 290° | 7 kt | 10000 meters | 28° | 82° | 15° | 59° | 45% | 1022 mb | 1,408 ft | |||
| 02-Sep | 06:00PM | n/a | 310° | 7 kt | Missing | 28° | 82° | 15° | 59° | 45% | 1022 mb | 1,408 ft | |||
| 02-Sep | 05:30PM | VFR | 290° | 7 kt | 10000 meters | 29° | 84° | 15° | 59° | 43% | 1022 mb | 1,528 ft | |||
| 02-Sep | 05:00PM | VFR | 270° | 8 kt | 10000 meters | 29° | 84° | 16° | 60° | 45% | 1022 mb | 1,528 ft | |||
| 02-Sep | 04:30PM | VFR | Variable | 4 kt | 10000 meters | 30° | 86° | 14° | 57° | 38% | 1022 mb | 1,648 ft | |||
| 02-Sep | 04:00PM | VFR | Variable | 3 kt | 10000 meters | 30° | 86° | 15° | 59° | 40% | 1022 mb | 1,648 ft | |||
| 02-Sep | 03:30PM | VFR | Variable | 3 kt | 10000 meters | 29° | 84° | 14° | 57° | 40% | 1022 mb | 1,528 ft | |||
| 02-Sep | 03:00PM | VFR | Variable | 3 kt | 10000 meters | 29° | 84° | 14° | 57° | 40% | 1023 mb | 1,499 ft | |||
| 02-Sep | 02:30PM | VFR | 30° | 4 kt | 10000 meters | 28° | 82° | 13° | 55° | 40% | 1023 mb | 1,379 ft | |||
| 02-Sep | 02:00PM | VFR | 30° | 6 kt | 10000 meters | 27° | 80° | 13° | 55° | 42% | 1023 mb | 1,259 ft | |||
| 02-Sep | 01:30PM | VFR | Variable | 4 kt | 10000 meters | 27° | 80° | 14° | 57° | 45% | 1023 mb | 1,259 ft | |||
| 02-Sep | 01:00PM | VFR | Variable | 5 kt | 10000 meters | 26° | 78° | 14° | 57° | 48% | 1023 mb | 1,139 ft | |||
| 02-Sep | 12:30PM | VFR | 40° | 3 kt | 10000 meters | 25° | 77° | 14° | 57° | 50% | 1024 mb | 989 ft | |||
| 02-Sep | 12:00PM | VFR | 30° | 3 kt | 10000 meters | 24° | 75° | 14° | 57° | 54% | 1024 mb | 869 ft |
Login
| Your browser is unsupported. upgrade your browser |
